Time;durP1;ratioP1;P1;durP2;ratioP2;P2;SDS_P1;SDS_P2;PMS_P1;PMS_P2;Temp;Humidity;BMP_temperature;BMP_pressure;BME280_temperature;BME280_humidity;BME280_pressure;Samples;Min_cycle;Max_cycle;Signal;HPM_P1;HPM_P2
2021/06/10 00:02:17;;;;;;;6.40;5.03;;;;;;;;;;5096924;28;20031;-70
2021/06/10 00:04:43;;;;;;;5.13;4.68;;;;;;;;;;5096484;28;20024;-69
2021/06/10 00:07:09;;;;;;;8.88;5.53;;;;;;;;;;5096452;28;20080;-69
2021/06/10 00:09:35;;;;;;;7.82;4.97;;;;;;;;;;5096286;28;20028;-70
2021/06/10 00:12:01;;;;;;;5.63;4.82;;;;;;;;;;5096017;28;20027;-70
2021/06/10 00:14:27;;;;;;;7.15;5.28;;;;;;;;;;5096686;28;20065;-69
2021/06/10 00:16:53;;;;;;;5.93;4.40;;;;;;;;;;5094698;28;20461;-69
2021/06/10 00:19:20;;;;;;;5.95;4.28;;;;;;;;;;5095844;28;20455;-69
2021/06/10 00:21:46;;;;;;;6.97;4.95;;;;;;;;;;5096193;28;20081;-69
2021/06/10 00:24:12;;;;;;;6.95;4.90;;;;;;;;;;5095936;28;20509;-70
2021/06/10 00:26:38;;;;;;;8.30;4.93;;;;;;;;;;5096414;28;20074;-70
2021/06/10 00:29:04;;;;;;;6.40;4.70;;;;;;;;;;5096106;28;20066;-69
2021/06/10 00:31:33;;;;;;;9.65;4.45;;;;;;;;;;5096395;28;20530;-69
2021/06/10 00:33:59;;;;;;;5.25;4.63;;;;;;;;;;5096192;28;20031;-70
2021/06/10 00:36:25;;;;;;;5.05;4.40;;;;;;;;;;5095025;28;20039;-70
2021/06/10 00:38:52;;;;;;;6.50;4.32;;;;;;;;;;5095571;28;20032;-70
2021/06/10 00:41:19;;;;;;;5.72;4.72;;;;;;;;;;5096010;28;20024;-69
2021/06/10 00:43:45;;;;;;;5.07;4.63;;;;;;;;;;5096293;28;20016;-70
2021/06/10 00:46:11;;;;;;;5.55;4.65;;;;;;;;;;5095757;28;20118;-69
2021/06/10 00:48:37;;;;;;;6.18;5.30;;;;;;;;;;5095739;28;20020;-70
2021/06/10 00:51:03;;;;;;;5.18;4.32;;;;;;;;;;5095182;28;20048;-69
2021/06/10 00:53:29;;;;;;;4.88;4.25;;;;;;;;;;5095430;28;20073;-70
2021/06/10 00:55:56;;;;;;;6.03;4.50;;;;;;;;;;5095376;28;20028;-70
2021/06/10 00:58:22;;;;;;;8.05;5.20;;;;;;;;;;5095304;28;20046;-69
2021/06/10 01:00:49;;;;;;;5.70;4.88;;;;;;;;;;5095213;28;20385;-69
2021/06/10 01:03:15;;;;;;;4.68;4.18;;;;;;;;;;5095252;28;20124;-70
2021/06/10 01:05:42;;;;;;;4.85;3.83;;;;;;;;;;5095408;28;20031;-70
2021/06/10 01:08:14;;;;;;;4.88;4.07;;;;;;;;;;5095006;28;20069;-70
2021/06/10 01:11:00;;;;;;;8.48;4.93;;;;;;;;;;5095684;28;20020;-70
2021/06/10 01:13:27;;;;;;;5.30;4.38;;;;;;;;;;5080511;28;20031;-70
2021/06/10 01:15:55;;;;;;;5.18;4.03;;;;;;;;;;5094924;28;20028;-70
2021/06/10 01:18:21;;;;;;;7.05;4.45;;;;;;;;;;5094893;28;20037;-69
2021/06/10 01:20:47;;;;;;;5.30;4.35;;;;;;;;;;5094770;28;20032;-69
2021/06/10 01:23:33;;;;;;;4.00;3.60;;;;;;;;;;5095537;28;20035;-70
2021/06/10 01:26:08;;;;;;;4.65;4.20;;;;;;;;;;5080265;28;20028;-69
2021/06/10 01:28:35;;;;;;;5.22;4.57;;;;;;;;;;5094665;28;20035;-69
2021/06/10 01:31:05;;;;;;;4.97;4.47;;;;;;;;;;5094822;28;20031;-69
2021/06/10 01:33:33;;;;;;;6.13;4.95;;;;;;;;;;5095266;28;20081;-69
2021/06/10 01:36:01;;;;;;;6.70;3.85;;;;;;;;;;5095054;28;20106;-69
2021/06/10 01:38:27;;;;;;;5.28;4.00;;;;;;;;;;5094480;28;20040;-69
2021/06/10 01:40:53;;;;;;;4.95;4.25;;;;;;;;;;5094839;28;20089;-68
2021/06/10 01:43:19;;;;;;;6.25;4.88;;;;;;;;;;5094555;28;20028;-68
2021/06/10 01:45:49;;;;;;;8.00;4.13;;;;;;;;;;5093882;28;20573;-70
2021/06/10 01:48:15;;;;;;;8.68;4.25;;;;;;;;;;5094524;28;20111;-70
2021/06/10 01:50:41;;;;;;;5.45;3.97;;;;;;;;;;5094880;28;20444;-69
2021/06/10 01:53:14;;;;;;;7.40;4.25;;;;;;;;;;5094437;28;20477;-69
2021/06/10 01:55:40;;;;;;;5.45;4.35;;;;;;;;;;5094298;28;20028;-69
2021/06/10 01:58:06;;;;;;;4.72;3.80;;;;;;;;;;5094229;28;20493;-68
2021/06/10 02:00:32;;;;;;;4.75;4.35;;;;;;;;;;5093972;28;20020;-69
2021/06/10 02:02:58;;;;;;;8.27;4.50;;;;;;;;;;5094568;28;20493;-69
2021/06/10 02:05:24;;;;;;;4.28;3.88;;;;;;;;;;5094247;28;20031;-70
2021/06/10 02:07:50;;;;;;;5.85;4.25;;;;;;;;;;5094554;28;20031;-70
2021/06/10 02:10:16;;;;;;;4.53;4.07;;;;;;;;;;5094159;28;20370;-69
2021/06/10 02:12:44;;;;;;;4.65;4.25;;;;;;;;;;5094114;28;20177;-69
2021/06/10 02:15:10;;;;;;;5.00;4.47;;;;;;;;;;5093856;28;20020;-70
2021/06/10 02:17:36;;;;;;;9.52;4.45;;;;;;;;;;5094001;28;20378;-70
2021/06/10 02:20:03;;;;;;;4.85;3.67;;;;;;;;;;5094075;28;20020;-70
2021/06/10 02:22:29;;;;;;;7.43;3.95;;;;;;;;;;5094022;28;20488;-70
2021/06/10 02:24:55;;;;;;;6.00;4.28;;;;;;;;;;5094107;28;20032;-70
2021/06/10 02:27:21;;;;;;;8.25;4.63;;;;;;;;;;5094052;28;20025;-69
2021/06/10 02:29:48;;;;;;;4.57;3.97;;;;;;;;;;5093755;28;20077;-70
2021/06/10 02:32:14;;;;;;;6.43;3.80;;;;;;;;;;5094137;28;20085;-69
2021/06/10 02:34:40;;;;;;;4.80;3.90;;;;;;;;;;5093819;28;20023;-69
2021/06/10 02:37:06;;;;;;;7.00;4.22;;;;;;;;;;5093779;28;20052;-69
2021/06/10 02:39:35;;;;;;;6.40;4.25;;;;;;;;;;5094319;28;20089;-69
2021/06/10 02:42:02;;;;;;;5.88;3.80;;;;;;;;;;5098009;28;20410;-69
2021/06/10 02:44:28;;;;;;;6.57;4.38;;;;;;;;;;5097793;28;20094;-69
2021/06/10 02:46:54;;;;;;;6.18;4.47;;;;;;;;;;5098813;28;20025;-69
2021/06/10 02:49:20;;;;;;;5.40;4.10;;;;;;;;;;5097943;28;20024;-69
2021/06/10 02:51:46;;;;;;;8.00;4.95;;;;;;;;;;5097817;28;20023;-69
2021/06/10 02:54:13;;;;;;;5.22;4.47;;;;;;;;;;5097794;28;20369;-70
2021/06/10 02:56:39;;;;;;;6.20;4.10;;;;;;;;;;5097840;28;20162;-70
2021/06/10 02:59:05;;;;;;;4.07;3.67;;;;;;;;;;5097297;28;20059;-69
2021/06/10 03:01:32;;;;;;;6.28;3.97;;;;;;;;;;5098180;28;20044;-69
2021/06/10 03:03:58;;;;;;;6.68;3.83;;;;;;;;;;5097550;28;20031;-69
2021/06/10 03:06:24;;;;;;;7.13;4.68;;;;;;;;;;5097641;28;20107;-69
2021/06/10 03:08:51;;;;;;;8.43;4.25;;;;;;;;;;5097603;28;20024;-69
2021/06/10 03:11:17;;;;;;;4.90;4.40;;;;;;;;;;5097552;28;20028;-69
2021/06/10 03:13:43;;;;;;;9.00;4.63;;;;;;;;;;5097167;28;20531;-69
2021/06/10 03:16:09;;;;;;;4.90;4.32;;;;;;;;;;5096976;28;20469;-70
2021/06/10 03:18:35;;;;;;;6.90;4.28;;;;;;;;;;5097860;28;20040;-70
2021/06/10 03:21:01;;;;;;;4.90;3.75;;;;;;;;;;5097180;28;20024;-70
2021/06/10 03:23:27;;;;;;;3.95;3.55;;;;;;;;;;5097634;28;20032;-70
2021/06/10 03:25:53;;;;;;;4.60;4.10;;;;;;;;;;5097230;28;20149;-69
2021/06/10 03:28:20;;;;;;;6.50;4.22;;;;;;;;;;5096826;28;20039;-69
2021/06/10 03:30:46;;;;;;;4.13;3.22;;;;;;;;;;5096996;28;20020;-69
2021/06/10 03:33:12;;;;;;;8.75;4.05;;;;;;;;;;5097868;28;20358;-69
2021/06/10 03:35:38;;;;;;;5.00;3.70;;;;;;;;;;5096961;28;20051;-69
2021/06/10 03:38:04;;;;;;;4.72;4.22;;;;;;;;;;5097113;28;20028;-69
2021/06/10 03:40:31;;;;;;;5.90;4.30;;;;;;;;;;5096938;28;20355;-70
2021/06/10 03:42:57;;;;;;;6.50;4.43;;;;;;;;;;5096750;28;20031;-70
2021/06/10 03:45:23;;;;;;;8.60;4.20;;;;;;;;;;5096866;28;20024;-70
2021/06/10 03:47:49;;;;;;;4.28;3.83;;;;;;;;;;5096834;28;20461;-70
2021/06/10 03:50:16;;;;;;;6.30;4.75;;;;;;;;;;5096202;28;20513;-70
2021/06/10 03:52:42;;;;;;;5.28;4.05;;;;;;;;;;5096997;28;20051;-70
2021/06/10 03:55:08;;;;;;;5.30;4.30;;;;;;;;;;5096716;28;20028;-69
2021/06/10 03:57:35;;;;;;;5.32;4.13;;;;;;;;;;5096476;28;20040;-70
2021/06/10 04:00:03;;;;;;;4.90;4.20;;;;;;;;;;5096759;28;20062;-70
2021/06/10 04:02:29;;;;;;;6.13;4.18;;;;;;;;;;5097066;28;20020;-69
2021/06/10 04:04:56;;;;;;;4.57;4.13;;;;;;;;;;5096502;28;20039;-70
2021/06/10 04:07:22;;;;;;;4.45;3.85;;;;;;;;;;5096749;28;20034;-70
2021/06/10 04:09:48;;;;;;;4.72;4.15;;;;;;;;;;5096187;28;20108;-70
2021/06/10 04:12:14;;;;;;;5.20;4.70;;;;;;;;;;5096352;28;20050;-69
2021/06/10 04:14:40;;;;;;;4.93;4.05;;;;;;;;;;5096260;28;20024;-69
2021/06/10 04:17:06;;;;;;;4.13;3.72;;;;;;;;;;5096554;28;20119;-69
2021/06/10 04:19:32;;;;;;;5.07;4.50;;;;;;;;;;5096223;28;20373;-68
2021/06/10 04:21:58;;;;;;;7.43;4.10;;;;;;;;;;5095886;28;20031;-69
2021/06/10 04:24:24;;;;;;;5.05;4.55;;;;;;;;;;5095918;28;20085;-69
2021/06/10 04:26:50;;;;;;;7.03;4.40;;;;;;;;;;5095932;28;20028;-70
2021/06/10 04:29:16;;;;;;;6.07;4.20;;;;;;;;;;5096056;28;20082;-70
2021/06/10 04:31:43;;;;;;;6.93;3.67;;;;;;;;;;5095935;28;20047;-69
2021/06/10 04:34:09;;;;;;;4.95;3.80;;;;;;;;;;5096147;28;20103;-70
2021/06/10 04:36:35;;;;;;;14.18;5.10;;;;;;;;;;5095420;28;20411;-69
2021/06/10 04:39:01;;;;;;;24.73;7.90;;;;;;;;;;5094748;28;20149;-69
2021/06/10 04:41:27;;;;;;;7.22;4.85;;;;;;;;;;5093651;28;20032;-75
2021/06/10 04:43:53;;;;;;;9.95;5.07;;;;;;;;;;5095252;28;20027;-72
2021/06/10 04:46:19;;;;;;;7.78;5.07;;;;;;;;;;5094997;28;20022;-72
2021/06/10 04:48:45;;;;;;;6.78;4.60;;;;;;;;;;5094397;28;20024;-73
2021/06/10 04:51:11;;;;;;;6.80;4.10;;;;;;;;;;5095028;28;20135;-70
2021/06/10 04:53:40;;;;;;;15.70;5.97;;;;;;;;;;5094985;28;20039;-70
2021/06/10 04:56:06;;;;;;;17.95;8.57;;;;;;;;;;5094676;28;20031;-69
2021/06/10 04:58:32;;;;;;;45.80;12.60;;;;;;;;;;5094967;28;20500;-69
2021/06/10 05:00:58;;;;;;;38.75;16.70;;;;;;;;;;5094581;28;20047;-71
2021/06/10 05:03:24;;;;;;;32.70;16.05;;;;;;;;;;5094285;28;20032;-70
2021/06/10 05:05:50;;;;;;;33.28;15.93;;;;;;;;;;5094810;28;20024;-71
2021/06/10 05:08:16;;;;;;;47.75;14.48;;;;;;;;;;5094026;28;20031;-71
2021/06/10 05:10:43;;;;;;;32.70;14.88;;;;;;;;;;5094358;28;20430;-72
2021/06/10 05:13:09;;;;;;;26.35;13.80;;;;;;;;;;5094360;28;20131;-72
2021/06/10 05:15:35;;;;;;;29.95;12.25;;;;;;;;;;5095182;28;20028;-72
2021/06/10 05:18:01;;;;;;;31.90;12.27;;;;;;;;;;5094963;28;20115;-71
2021/06/10 05:20:27;;;;;;;19.80;10.63;;;;;;;;;;5094349;28;20044;-71
2021/06/10 05:22:53;;;;;;;24.08;11.50;;;;;;;;;;5094001;28;20492;-71
2021/06/10 05:25:19;;;;;;;26.77;12.77;;;;;;;;;;5093876;28;20369;-71
2021/06/10 05:27:45;;;;;;;28.55;12.70;;;;;;;;;;5094539;28;20020;-71
2021/06/10 05:30:11;;;;;;;20.30;11.82;;;;;;;;;;5094348;28;20024;-72
2021/06/10 05:32:37;;;;;;;21.92;10.35;;;;;;;;;;5094301;28;20119;-71
2021/06/10 05:35:04;;;;;;;22.05;10.13;;;;;;;;;;5094580;28;20024;-71
2021/06/10 05:37:30;;;;;;;18.73;9.40;;;;;;;;;;5093664;28;20420;-72
2021/06/10 05:39:56;;;;;;;28.73;12.52;;;;;;;;;;5093502;28;20034;-72
2021/06/10 05:42:22;;;;;;;19.63;9.98;;;;;;;;;;5094032;28;20024;-70
2021/06/10 05:44:48;;;;;;;23.67;10.45;;;;;;;;;;5093650;28;20474;-71
2021/06/10 05:47:14;;;;;;;30.08;9.00;;;;;;;;;;5093826;28;20423;-71
2021/06/10 05:49:40;;;;;;;21.05;9.88;;;;;;;;;;5093134;28;20024;-71
2021/06/10 05:52:06;;;;;;;16.05;9.02;;;;;;;;;;5094006;28;20466;-70
2021/06/10 05:54:32;;;;;;;25.50;9.45;;;;;;;;;;5093642;28;20110;-71
2021/06/10 05:56:59;;;;;;;28.17;9.77;;;;;;;;;;5093832;28;20024;-71
2021/06/10 05:59:25;;;;;;;19.48;8.65;;;;;;;;;;5093567;28;20036;-70
2021/06/10 06:01:51;;;;;;;23.35;10.05;;;;;;;;;;5093966;28;20170;-71
2021/06/10 06:04:18;;;;;;;13.00;7.80;;;;;;;;;;5093757;28;20073;-71
2021/06/10 06:06:44;;;;;;;17.58;8.73;;;;;;;;;;5093129;28;20012;-71
2021/06/10 06:09:10;;;;;;;15.75;8.98;;;;;;;;;;5093374;28;20043;-70
2021/06/10 06:11:36;;;;;;;15.38;7.65;;;;;;;;;;5093088;28;20066;-70
2021/06/10 06:14:12;;;;;;;18.60;7.55;;;;;;;;;;5093822;28;20035;-70
2021/06/10 06:16:40;;;;;;;15.93;7.43;;;;;;;;;;5093028;28;20025;-70
2021/06/10 06:19:06;;;;;;;10.32;6.25;;;;;;;;;;5093294;28;20039;-70
2021/06/10 06:21:33;;;;;;;11.40;5.60;;;;;;;;;;5093684;28;20031;-69
2021/06/10 06:24:00;;;;;;;13.13;7.18;;;;;;;;;;5092943;28;20020;-69
2021/06/10 06:26:26;;;;;;;8.93;5.93;;;;;;;;;;5093467;28;20020;-69
2021/06/10 06:28:54;;;;;;;13.95;6.80;;;;;;;;;;5093009;28;20028;-69
2021/06/10 06:31:21;;;;;;;9.50;6.35;;;;;;;;;;5092715;28;20016;-70
2021/06/10 06:33:47;;;;;;;23.83;6.60;;;;;;;;;;5093560;28;20176;-70
2021/06/10 06:36:13;;;;;;;11.90;6.95;;;;;;;;;;5092905;28;20566;-71
2021/06/10 06:38:39;;;;;;;11.05;6.72;;;;;;;;;;5092843;28;20043;-71
2021/06/10 06:41:05;;;;;;;11.23;6.70;;;;;;;;;;5093192;28;20074;-71
2021/06/10 06:43:31;;;;;;;14.07;7.60;;;;;;;;;;5093146;28;20028;-71
2021/06/10 06:45:58;;;;;;;11.85;7.70;;;;;;;;;;5093180;28;20077;-71
2021/06/10 06:48:24;;;;;;;14.10;7.00;;;;;;;;;;5093195;28;20036;-71
2021/06/10 06:50:50;;;;;;;11.45;6.78;;;;;;;;;;5092767;28;20055;-71
2021/06/10 06:53:16;;;;;;;9.82;6.82;;;;;;;;;;5092649;28;20024;-71
2021/06/10 06:55:44;;;;;;;18.33;7.13;;;;;;;;;;5093223;28;20376;-72
2021/06/10 06:58:10;;;;;;;11.18;6.97;;;;;;;;;;5093312;28;20038;-71
2021/06/10 07:00:36;;;;;;;16.73;7.55;;;;;;;;;;5092902;28;20029;-71
2021/06/10 07:03:02;;;;;;;9.73;5.93;;;;;;;;;;5093062;28;20401;-71
2021/06/10 07:05:28;;;;;;;10.77;6.78;;;;;;;;;;5092721;28;20024;-71
2021/06/10 07:07:54;;;;;;;12.18;6.15;;;;;;;;;;5092685;28;20039;-71
2021/06/10 07:10:20;;;;;;;13.50;6.05;;;;;;;;;;5093114;28;20031;-71
2021/06/10 07:12:46;;;;;;;9.48;6.13;;;;;;;;;;5093041;28;20399;-71
2021/06/10 07:15:13;;;;;;;9.23;5.22;;;;;;;;;;5092608;28;20025;-71
2021/06/10 07:17:39;;;;;;;11.18;6.28;;;;;;;;;;5092649;28;20024;-70
2021/06/10 07:20:05;;;;;;;9.38;5.90;;;;;;;;;;5092527;28;20099;-71
2021/06/10 07:22:32;;;;;;;9.93;6.47;;;;;;;;;;5092559;28;20033;-71
2021/06/10 07:24:58;;;;;;;14.63;6.47;;;;;;;;;;5093167;28;20032;-70
2021/06/10 07:27:24;;;;;;;13.35;6.93;;;;;;;;;;5096484;28;20020;-71
2021/06/10 07:29:53;;;;;;;9.18;5.80;;;;;;;;;;5096078;28;20024;-71
2021/06/10 07:32:19;;;;;;;8.40;5.40;;;;;;;;;;5096436;28;20138;-71
2021/06/10 07:34:45;;;;;;;11.95;6.43;;;;;;;;;;5095853;28;20024;-71
2021/06/10 07:37:11;;;;;;;6.40;4.43;;;;;;;;;;5096142;28;20114;-71
2021/06/10 07:39:37;;;;;;;10.55;5.78;;;;;;;;;;5096613;28;20629;-70
2021/06/10 07:42:03;;;;;;;11.52;5.72;;;;;;;;;;5096018;28;20484;-70
2021/06/10 07:44:29;;;;;;;9.38;5.95;;;;;;;;;;5095990;28;20056;-71
2021/06/10 07:46:55;;;;;;;10.07;5.85;;;;;;;;;;5096294;28;20374;-70
2021/06/10 07:49:21;;;;;;;9.50;6.07;;;;;;;;;;5095954;28;20020;-70
2021/06/10 07:51:47;;;;;;;10.50;6.30;;;;;;;;;;5095200;28;20397;-71
2021/06/10 07:54:13;;;;;;;15.73;6.38;;;;;;;;;;5096247;28;20028;-71
2021/06/10 07:56:40;;;;;;;17.30;6.38;;;;;;;;;;5096208;28;20031;-72
2021/06/10 07:59:06;;;;;;;10.38;5.55;;;;;;;;;;5096795;28;20110;-72
2021/06/10 08:01:32;;;;;;;15.70;5.72;;;;;;;;;;5104458;28;20060;-70
2021/06/10 08:03:58;;;;;;;13.48;5.85;;;;;;;;;;5116125;28;20058;-69
2021/06/10 08:06:24;;;;;;;7.00;4.72;;;;;;;;;;5116092;28;20114;-70
2021/06/10 08:08:50;;;;;;;18.48;6.22;;;;;;;;;;5116218;28;20464;-71
2021/06/10 08:11:16;;;;;;;5.43;3.90;;;;;;;;;;5117414;28;20024;-72
2021/06/10 08:13:42;;;;;;;11.75;5.50;;;;;;;;;;5116784;28;20030;-71
2021/06/10 08:16:09;;;;;;;12.30;5.90;;;;;;;;;;5116219;28;20469;-70
2021/06/10 08:18:35;;;;;;;5.85;4.60;;;;;;;;;;5116033;28;20042;-71
2021/06/10 08:21:02;;;;;;;7.97;5.22;;;;;;;;;;5115982;28;20026;-71
2021/06/10 08:23:28;;;;;;;7.57;4.85;;;;;;;;;;5116712;28;20020;-70
2021/06/10 08:25:57;;;;;;;10.98;5.55;;;;;;;;;;5115912;28;20050;-70
2021/06/10 08:28:23;;;;;;;19.60;5.50;;;;;;;;;;5116383;28;20066;-70
2021/06/10 08:30:49;;;;;;;6.97;5.05;;;;;;;;;;5115265;28;20031;-71
2021/06/10 08:33:15;;;;;;;17.45;5.30;;;;;;;;;;5115787;28;20038;-70
2021/06/10 08:35:42;;;;;;;11.80;5.78;;;;;;;;;;5115960;28;20023;-70
2021/06/10 08:38:09;;;;;;;15.10;5.15;;;;;;;;;;5113714;28;20031;-70
2021/06/10 08:40:36;;;;;;;8.60;5.28;;;;;;;;;;5114728;28;20027;-69
2021/06/10 08:43:03;;;;;;;9.52;5.25;;;;;;;;;;5115506;28;20043;-68
2021/06/10 08:45:29;;;;;;;11.55;5.40;;;;;;;;;;5115696;28;20020;-69
2021/06/10 08:47:56;;;;;;;24.70;4.53;;;;;;;;;;5115632;28;20035;-69
2021/06/10 08:50:23;;;;;;;9.70;5.72;;;;;;;;;;5115866;28;20054;-69
2021/06/10 08:52:50;;;;;;;7.95;5.28;;;;;;;;;;5115867;28;20411;-68
2021/06/10 08:55:16;;;;;;;7.75;4.57;;;;;;;;;;5116131;28;20032;-68
2021/06/10 08:57:42;;;;;;;5.68;5.07;;;;;;;;;;5116100;28;20034;-69
2021/06/10 09:00:08;;;;;;;9.00;4.57;;;;;;;;;;5115662;28;20487;-68
2021/06/10 09:02:36;;;;;;;7.00;4.43;;;;;;;;;;5115676;28;20126;-69
2021/06/10 09:05:06;;;;;;;8.23;5.53;;;;;;;;;;5115843;28;20197;-68
2021/06/10 09:07:33;;;;;;;6.40;4.82;;;;;;;;;;5115331;28;20452;-68
2021/06/10 09:09:59;;;;;;;10.68;5.90;;;;;;;;;;5116056;28;20027;-69
2021/06/10 09:12:25;;;;;;;8.95;5.15;;;;;;;;;;5115869;28;20023;-69
2021/06/10 09:14:56;;;;;;;6.78;4.70;;;;;;;;;;5114670;28;20031;-69
2021/06/10 09:17:26;;;;;;;10.23;4.53;;;;;;;;;;5114729;28;20069;-69
2021/06/10 09:19:52;;;;;;;7.68;4.82;;;;;;;;;;5114873;28;20035;-68
2021/06/10 09:22:19;;;;;;;7.55;4.43;;;;;;;;;;5113840;28;20496;-70
2021/06/10 09:24:45;;;;;;;8.10;4.82;;;;;;;;;;5114481;28;20035;-69
2021/06/10 09:27:13;;;;;;;6.30;4.53;;;;;;;;;;5114063;28;20019;-69
2021/06/10 09:29:47;;;;;;;6.13;3.80;;;;;;;;;;5113631;28;20020;-69
2021/06/10 09:32:17;;;;;;;9.88;4.55;;;;;;;;;;5114035;28;20465;-70
2021/06/10 09:34:54;;;;;;;8.60;5.10;;;;;;;;;;5113898;28;20072;-69
2021/06/10 09:37:42;;;;;;;7.57;5.03;;;;;;;;;;5114468;28;20451;-69
2021/06/10 09:40:08;;;;;;;14.00;4.53;;;;;;;;;;5100412;28;20031;-69
2021/06/10 09:42:35;;;;;;;12.88;4.72;;;;;;;;;;5114083;28;20028;-69
2021/06/10 09:45:03;;;;;;;6.47;4.57;;;;;;;;;;5114325;28;20019;-70
2021/06/10 09:47:30;;;;;;;9.45;4.63;;;;;;;;;;5114058;28;20106;-70
2021/06/10 09:49:57;;;;;;;5.95;4.40;;;;;;;;;;5114060;28;20047;-69
2021/06/10 09:52:23;;;;;;;9.55;4.25;;;;;;;;;;5114567;28;20039;-69
2021/06/10 09:54:52;;;;;;;4.57;4.13;;;;;;;;;;5113688;28;20026;-69
2021/06/10 09:57:18;;;;;;;11.15;5.85;;;;;;;;;;5114294;28;20031;-69
2021/06/10 09:59:59;;;;;;;21.10;5.55;;;;;;;;;;5113865;28;20039;-69
2021/06/10 10:02:26;;;;;;;15.38;4.80;;;;;;;;;;5113289;28;20538;-69
2021/06/10 10:04:59;;;;;;;11.85;4.80;;;;;;;;;;5113558;28;20019;-69
2021/06/10 10:07:26;;;;;;;8.65;4.68;;;;;;;;;;5113876;28;20077;-69
2021/06/10 10:09:52;;;;;;;8.77;4.90;;;;;;;;;;5113885;28;20388;-69
2021/06/10 10:12:19;;;;;;;9.50;3.60;;;;;;;;;;5113749;28;20540;-69
2021/06/10 10:14:45;;;;;;;7.55;4.60;;;;;;;;;;5113490;28;20035;-69
2021/06/10 10:17:11;;;;;;;8.50;4.10;;;;;;;;;;5113786;28;20023;-69
2021/06/10 10:19:37;;;;;;;14.50;4.82;;;;;;;;;;5113816;28;20042;-69
2021/06/10 10:22:03;;;;;;;7.82;4.00;;;;;;;;;;5113606;28;20015;-69
2021/06/10 10:24:29;;;;;;;9.15;4.72;;;;;;;;;;5112990;28;20020;-72
2021/06/10 10:26:55;;;;;;;10.68;5.45;;;;;;;;;;5113735;28;20084;-71
2021/06/10 10:29:21;;;;;;;16.67;7.38;;;;;;;;;;5114408;28;20030;-71
2021/06/10 10:31:49;;;;;;;12.88;7.13;;;;;;;;;;5113768;28;20027;-71
2021/06/10 10:34:32;;;;;;;23.48;8.43;;;;;;;;;;5113765;28;20028;-71
2021/06/10 10:36:58;;;;;;;17.27;8.63;;;;;;;;;;5113484;28;20020;-72
2021/06/10 10:39:35;;;;;;;10.48;6.93;;;;;;;;;;5113322;28;20377;-71
2021/06/10 10:42:01;;;;;;;15.77;7.78;;;;;;;;;;5112926;28;20099;-72
2021/06/10 10:44:30;;;;;;;12.60;7.15;;;;;;;;;;5113139;28;20028;-71
2021/06/10 10:47:11;;;;;;;17.00;8.07;;;;;;;;;;5113214;28;20077;-71
2021/06/10 10:49:41;;;;;;;15.10;8.38;;;;;;;;;;5113328;28;20038;-70
2021/06/10 10:52:28;;;;;;;15.40;7.70;;;;;;;;;;5113222;28;20020;-71
2021/06/10 10:54:54;;;;;;;12.43;7.97;;;;;;;;;;5113598;28;20019;-71
2021/06/10 10:57:39;;;;;;;12.23;6.75;;;;;;;;;;5113384;28;20023;-71
2021/06/10 11:00:06;;;;;;;12.85;6.80;;;;;;;;;;5113248;28;20027;-70
2021/06/10 11:02:32;;;;;;;12.38;6.07;;;;;;;;;;5117434;28;20425;-71
2021/06/10 11:05:00;;;;;;;10.18;6.03;;;;;;;;;;5116896;28;20024;-71
2021/06/10 11:07:46;;;;;;;18.67;6.40;;;;;;;;;;5117147;28;20110;-71
2021/06/10 11:10:18;;;;;;;10.05;6.50;;;;;;;;;;5102525;28;20027;-71
2021/06/10 11:12:44;;;;;;;;;;;;;;;;;;5117342;28;20115;-70
2021/06/10 11:15:33;;;;;;;16.13;8.75;;;;;;;;;;5116963;28;20002;-70
2021/06/10 11:18:06;;;;;;;24.27;10.60;;;;;;;;;;5102489;28;20024;-70
2021/06/10 11:20:41;;;;;;;21.05;11.15;;;;;;;;;;5116088;28;20489;-70
2021/06/10 11:23:10;;;;;;;28.75;12.13;;;;;;;;;;5117486;28;20369;-70
2021/06/10 11:25:41;;;;;;;19.95;10.77;;;;;;;;;;5117029;28;20035;-69
2021/06/10 11:28:09;;;;;;;16.70;10.63;;;;;;;;;;5116954;28;20027;-69
2021/06/10 11:30:36;;;;;;;18.10;10.20;;;;;;;;;;5116945;28;20077;-70
2021/06/10 11:33:22;;;;;;;26.05;10.27;;;;;;;;;;5110797;28;20015;-67
2021/06/10 11:35:49;;;;;;;37.72;10.38;;;;;;;;;;5081243;28;20081;-68
2021/06/10 11:38:21;;;;;;;20.63;10.43;;;;;;;;;;5095225;28;20036;-69
2021/06/10 11:40:47;;;;;;;;;;;;;;;;;;5105362;28;20047;-68
2021/06/10 11:43:14;;;;;;;22.80;9.57;;;;;;;;;;5115443;28;19903;-68
2021/06/10 11:45:40;;;;;;;15.98;9.50;;;;;;;;;;5116145;28;20019;-68
2021/06/10 11:48:06;;;;;;;18.77;10.07;;;;;;;;;;5116384;28;20027;-67
2021/06/10 11:50:36;;;;;;;17.67;9.15;;;;;;;;;;5106448;28;20077;-68
2021/06/10 11:53:04;;;;;;;12.00;8.57;;;;;;;;;;5095309;28;20035;-69
2021/06/10 11:55:31;;;;;;;21.00;8.90;;;;;;;;;;5095982;28;20432;-68
2021/06/10 11:57:58;;;;;;;22.35;9.07;;;;;;;;;;5095108;28;20385;-68
2021/06/10 12:00:26;;;;;;;16.80;8.63;;;;;;;;;;5093646;28;20024;-67
2021/06/10 12:02:55;;;;;;;10.55;7.32;;;;;;;;;;5094543;28;20068;-69
2021/06/10 12:05:22;;;;;;;16.10;8.52;;;;;;;;;;5095176;28;20031;-69
2021/06/10 12:07:49;;;;;;;17.20;7.68;;;;;;;;;;5095211;28;20020;-68
2021/06/10 12:10:18;;;;;;;10.27;6.55;;;;;;;;;;5093638;28;20023;-68
2021/06/10 12:12:45;;;;;;;12.90;7.68;;;;;;;;;;5095035;28;20031;-69
2021/06/10 12:15:33;;;;;;;18.77;7.82;;;;;;;;;;5114817;28;20019;-69
2021/06/10 12:18:01;;;;;;;15.55;8.20;;;;;;;;;;5115848;28;20027;-68
2021/06/10 12:20:28;;;;;;;9.40;6.68;;;;;;;;;;5112785;28;20047;-69
2021/06/10 12:22:54;;;;;;;13.63;6.82;;;;;;;;;;5114800;28;20086;-68
2021/06/10 12:25:21;;;;;;;11.05;7.22;;;;;;;;;;5115700;28;20019;-67
2021/06/10 12:27:47;;;;;;;10.43;6.50;;;;;;;;;;5115481;28;20418;-68
2021/06/10 12:30:36;;;;;;;11.25;6.53;;;;;;;;;;5114152;28;21596;-68
2021/06/10 12:33:22;;;;;;;11.88;7.45;;;;;;;;;;5099014;28;20023;-68
2021/06/10 12:35:49;;;;;;;15.77;6.40;;;;;;;;;;5080437;28;20031;-67
2021/06/10 12:38:16;;;;;;;11.90;6.40;;;;;;;;;;5094727;28;20059;-69
2021/06/10 12:40:44;;;;;;;6.18;5.40;;;;;;;;;;5102160;28;20369;-69
2021/06/10 12:43:11;;;;;;;10.85;6.70;;;;;;;;;;5114974;28;20341;-67
2021/06/10 12:45:37;;;;;;;11.38;6.70;;;;;;;;;;5115694;28;20031;-68
2021/06/10 12:48:08;;;;;;;8.63;5.10;;;;;;;;;;5114963;28;20385;-68
2021/06/10 12:50:34;;;;;;;19.95;6.95;;;;;;;;;;5112299;28;20074;-68
2021/06/10 12:53:08;;;;;;;14.00;6.32;;;;;;;;;;5114287;28;20031;-69
2021/06/10 12:55:34;;;;;;;10.65;5.70;;;;;;;;;;5115381;28;20024;-68
2021/06/10 12:58:00;;;;;;;11.57;6.15;;;;;;;;;;5114630;28;20115;-68
2021/06/10 13:00:31;;;;;;;16.55;5.60;;;;;;;;;;5114182;28;20119;-69
2021/06/10 13:03:05;;;;;;;11.70;5.90;;;;;;;;;;5114653;28;20030;-68
2021/06/10 13:05:31;;;;;;;9.48;5.30;;;;;;;;;;5114598;28;20908;-68
2021/06/10 13:07:58;;;;;;;9.68;5.20;;;;;;;;;;5114627;28;20377;-68
2021/06/10 13:10:32;;;;;;;11.10;5.28;;;;;;;;;;5114628;28;20015;-68
2021/06/10 13:12:58;;;;;;;13.80;5.40;;;;;;;;;;5114326;28;20070;-69
2021/06/10 13:15:25;;;;;;;10.63;5.90;;;;;;;;;;5114185;28;20024;-69
2021/06/10 13:17:54;;;;;;;16.95;5.43;;;;;;;;;;5114231;28;20532;-68
2021/06/10 13:20:39;;;;;;;13.70;5.40;;;;;;;;;;5114154;28;20028;-68
2021/06/10 13:23:06;;;;;;;17.83;5.82;;;;;;;;;;5098660;28;20111;-67
2021/06/10 13:25:32;;;;;;;22.38;5.68;;;;;;;;;;5114017;28;20020;-68
2021/06/10 13:28:15;;;;;;;17.30;4.93;;;;;;;;;;5114022;28;20032;-67
2021/06/10 13:30:41;;;;;;;18.80;5.38;;;;;;;;;;5113194;28;20848;-68
2021/06/10 13:33:07;;;;;;;13.70;5.43;;;;;;;;;;5113981;28;20023;-68
2021/06/10 13:35:39;;;;;;;14.82;5.10;;;;;;;;;;5114331;28;20056;-68
2021/06/10 13:38:05;;;;;;;15.15;5.07;;;;;;;;;;5113588;28;20419;-68
2021/06/10 13:40:31;;;;;;;25.10;5.53;;;;;;;;;;5113633;28;20108;-68
2021/06/10 13:42:57;;;;;;;17.30;5.63;;;;;;;;;;5113516;28;20499;-71
2021/06/10 13:45:23;;;;;;;12.35;5.47;;;;;;;;;;5113808;28;20382;-70
2021/06/10 13:47:49;;;;;;;9.10;4.25;;;;;;;;;;5113607;28;20030;-69
2021/06/10 13:50:16;;;;;;;11.60;5.05;;;;;;;;;;5113962;28;20097;-69
2021/06/10 13:52:42;;;;;;;10.90;4.25;;;;;;;;;;5113153;28;20024;-69
2021/06/10 13:55:08;;;;;;;11.30;5.00;;;;;;;;;;5113432;28;20107;-68
2021/06/10 13:57:34;;;;;;;17.02;4.78;;;;;;;;;;5113610;28;20023;-68
2021/06/10 14:00:02;;;;;;;16.80;4.72;;;;;;;;;;5113059;28;20452;-68
2021/06/10 14:02:28;;;;;;;14.13;4.03;;;;;;;;;;5113223;28;20456;-67
2021/06/10 14:04:54;;;;;;;10.07;4.32;;;;;;;;;;5113532;28;20034;-67
2021/06/10 14:07:21;;;;;;;14.63;5.93;;;;;;;;;;5113305;28;20072;-68
2021/06/10 14:09:47;;;;;;;12.98;3.53;;;;;;;;;;5112410;28;20022;-68
2021/06/10 14:12:13;;;;;;;12.77;4.68;;;;;;;;;;5112948;28;20479;-67
2021/06/10 14:14:39;;;;;;;5.35;4.15;;;;;;;;;;5113009;28;20062;-69
2021/06/10 14:17:05;;;;;;;9.40;4.90;;;;;;;;;;5113254;28;20383;-67
2021/06/10 14:19:31;;;;;;;11.85;5.13;;;;;;;;;;5113220;28;20043;-68
2021/06/10 14:21:57;;;;;;;7.93;4.32;;;;;;;;;;5113047;28;20469;-68
2021/06/10 14:24:24;;;;;;;14.52;5.30;;;;;;;;;;5113189;28;20023;-67
2021/06/10 14:26:50;;;;;;;8.77;4.68;;;;;;;;;;5112967;28;20035;-67
2021/06/10 14:32:18;;;;;;;9.75;4.70;;;;;;;;;;5098436;28;20126;-68
2021/06/10 14:34:44;;;;;;;5.65;4.22;;;;;;;;;;5112369;28;20123;-69
2021/06/10 14:37:10;;;;;;;15.77;5.05;;;;;;;;;;5112486;28;20114;-67
2021/06/10 14:39:36;;;;;;;7.97;5.28;;;;;;;;;;5112636;28;20039;-68
2021/06/10 14:42:02;;;;;;;24.25;5.38;;;;;;;;;;5113076;28;20028;-67